createdAt,value
2023-03-04T00:01:04.264Z,2.90
2023-03-04T00:06:08.571Z,2.90
2023-03-04T00:11:12.388Z,2.88
2023-03-04T00:16:17.272Z,2.80
2023-03-04T00:21:21.677Z,2.80
2023-03-04T00:26:25.719Z,2.80
2023-03-04T00:31:29.875Z,2.84
2023-03-04T00:36:34.086Z,2.86
2023-03-04T00:41:38.613Z,2.90
2023-03-04T00:46:42.647Z,2.96
2023-03-04T00:51:46.674Z,3.00
2023-03-04T00:56:50.810Z,3.00
2023-03-04T01:01:54.695Z,3.00
2023-03-04T01:06:58.753Z,3.00
2023-03-04T01:12:03.009Z,3.06
2023-03-04T01:17:07.341Z,3.00
2023-03-04T01:22:12.719Z,3.00
2023-03-04T01:27:17.245Z,3.10
2023-03-04T01:32:21.215Z,3.10
2023-03-04T01:37:25.418Z,3.06
2023-03-04T01:42:34.309Z,3.00
2023-03-04T01:47:38.078Z,3.00
2023-03-04T01:52:43.395Z,3.04
2023-03-04T01:57:50.711Z,3.00
2023-03-04T02:03:20.229Z,3.00
2023-03-04T02:08:26.049Z,3.00
2023-03-04T02:13:29.978Z,3.00
2023-03-04T02:18:34.111Z,3.00
2023-03-04T02:24:12.749Z,3.00
2023-03-04T02:29:18.105Z,3.00
2023-03-04T02:34:30.555Z,3.00
2023-03-04T02:39:41.955Z,3.00
2023-03-04T02:44:49.618Z,3.06
2023-03-04T02:49:53.891Z,3.08
2023-03-04T02:54:57.728Z,3.10
2023-03-04T03:00:01.891Z,3.10
2023-03-04T03:05:06.840Z,3.10
2023-03-04T03:10:11.858Z,3.20
2023-03-04T03:15:16.969Z,3.20
2023-03-04T03:20:21.378Z,3.20
2023-03-04T03:25:25.282Z,3.20
2023-03-04T03:30:29.614Z,3.30
2023-03-04T03:35:33.667Z,3.30
2023-03-04T03:40:37.580Z,3.30
2023-03-04T03:45:41.547Z,3.30
2023-03-04T03:50:46.203Z,3.30
2023-03-04T03:55:50.193Z,3.30
2023-03-04T04:00:55.887Z,3.30
2023-03-04T04:06:02.135Z,3.30
2023-03-04T04:11:05.965Z,3.30
2023-03-04T04:16:12.112Z,3.40
2023-03-04T04:21:15.974Z,3.40
2023-03-04T04:26:19.770Z,3.40
2023-03-04T04:31:23.636Z,3.40
2023-03-04T04:36:27.953Z,3.40
2023-03-04T04:41:41.354Z,3.40
2023-03-04T04:46:45.425Z,3.30
2023-03-04T04:51:49.367Z,3.30
2023-03-04T04:56:54.043Z,3.30
2023-03-04T05:01:57.849Z,3.30
2023-03-04T05:07:02.012Z,3.26
2023-03-04T05:12:06.499Z,3.20
2023-03-04T05:17:10.341Z,3.20
2023-03-04T05:22:14.381Z,3.14
2023-03-04T05:27:18.512Z,3.10
2023-03-04T05:32:22.649Z,3.10
2023-03-04T05:37:26.673Z,3.10
2023-03-04T05:42:30.695Z,3.20
2023-03-04T05:47:35.143Z,3.20
2023-03-04T05:52:39.650Z,3.28
2023-03-04T05:57:45.078Z,3.30
2023-03-04T06:02:49.204Z,3.40
2023-03-04T06:07:53.111Z,3.40
2023-03-04T06:12:57.948Z,3.42
2023-03-04T06:18:02.762Z,3.50
2023-03-04T06:23:08.031Z,3.50
2023-03-04T06:28:11.958Z,3.60
2023-03-04T06:33:16.641Z,3.70
2023-03-04T06:38:20.569Z,3.86
2023-03-04T06:43:24.720Z,3.90
2023-03-04T06:48:29.339Z,3.90
2023-03-04T06:53:33.168Z,3.90
2023-03-04T06:58:37.914Z,3.80
2023-03-04T07:03:42.984Z,3.80
2023-03-04T07:08:47.642Z,3.82
2023-03-04T07:13:52.207Z,3.90
2023-03-04T07:18:56.083Z,3.90
2023-03-04T07:24:00.253Z,4.00
2023-03-04T07:29:06.819Z,4.10
2023-03-04T07:34:14.890Z,4.10
2023-03-04T07:39:18.867Z,4.20
2023-03-04T07:44:23.270Z,4.30
2023-03-04T07:49:27.385Z,4.40
2023-03-04T07:54:31.629Z,4.40
2023-03-04T07:59:35.498Z,4.42
2023-03-04T08:04:39.591Z,4.50
2023-03-04T08:09:44.313Z,4.50
2023-03-04T08:14:48.631Z,4.50
2023-03-04T08:19:52.942Z,4.60
2023-03-04T08:24:56.879Z,4.70
2023-03-04T08:30:00.956Z,4.80
2023-03-04T08:35:06.113Z,4.80
2023-03-04T08:40:11.953Z,4.90
2023-03-04T08:45:16.260Z,4.90
2023-03-04T08:50:22.305Z,4.90
2023-03-04T08:55:26.450Z,5.00
2023-03-04T09:00:30.418Z,5.00
2023-03-04T09:05:34.445Z,5.10
2023-03-04T09:10:38.984Z,5.20
2023-03-04T09:15:49.312Z,5.20
2023-03-04T09:20:54.557Z,5.20
2023-03-04T09:25:58.650Z,5.20
2023-03-04T09:31:03.032Z,5.20
2023-03-04T09:36:09.157Z,5.20
2023-03-04T09:41:26.935Z,5.10
2023-03-04T09:46:42.061Z,5.00
2023-03-04T09:51:52.512Z,4.80
2023-03-04T09:57:25.210Z,4.60
2023-03-04T10:02:47.787Z,4.70
2023-03-04T10:08:06.904Z,4.80
2023-03-04T10:13:26.264Z,4.90
2023-03-04T10:18:55.558Z,4.90
2023-03-04T10:24:25.476Z,5.00
2023-03-04T10:29:33.224Z,5.24
2023-03-04T10:34:37.347Z,5.40
2023-03-04T10:39:45.588Z,5.42
2023-03-04T10:45:00.309Z,5.52
2023-03-04T10:50:06.505Z,5.70
2023-03-04T10:55:46.321Z,5.90
2023-03-04T11:01:05.663Z,6.28
2023-03-04T11:06:21.161Z,6.22
2023-03-04T11:11:50.492Z,6.20
2023-03-04T11:17:21.286Z,6.10
2023-03-04T11:22:29.571Z,6.10
2023-03-04T11:27:48.000Z,6.20
2023-03-04T11:33:00.489Z,6.20
2023-03-04T11:38:38.532Z,6.50
2023-03-04T11:43:46.925Z,7.20
2023-03-04T11:49:34.433Z,7.88
2023-03-04T11:55:06.002Z,8.38
2023-03-04T12:01:01.104Z,8.44
2023-03-04T12:06:37.200Z,8.66
2023-03-04T12:12:14.025Z,8.08
2023-03-04T12:17:48.009Z,7.20
2023-03-04T12:23:27.495Z,6.70
2023-03-04T12:28:54.236Z,6.30
2023-03-04T12:34:23.162Z,6.00
2023-03-04T12:39:39.169Z,6.80
2023-03-04T12:45:17.969Z,6.60
2023-03-04T12:50:22.592Z,5.94
2023-03-04T12:55:38.937Z,5.80
2023-03-04T13:00:56.094Z,6.08
2023-03-04T13:06:37.908Z,6.70
2023-03-04T13:11:57.196Z,6.90
2023-03-04T13:17:38.611Z,7.22
2023-03-04T13:22:50.957Z,7.60
2023-03-04T13:28:14.062Z,7.80
2023-03-04T13:33:18.182Z,6.88
2023-03-04T13:38:36.881Z,5.94
2023-03-04T13:44:00.183Z,5.20
2023-03-04T13:49:08.477Z,4.80
2023-03-04T13:54:33.119Z,4.54
2023-03-04T13:59:46.982Z,7.02
2023-03-04T14:05:03.851Z,9.32
2023-03-04T14:10:12.683Z,8.64
2023-03-04T14:15:25.326Z,11.90
2023-03-04T14:20:33.503Z,8.30
2023-03-04T14:25:40.363Z,6.62
2023-03-04T14:30:54.960Z,5.72
2023-03-04T14:36:03.970Z,5.72
2023-03-04T14:41:38.771Z,6.28
2023-03-04T14:47:07.952Z,5.98
2023-03-04T14:52:52.569Z,5.06
2023-03-04T14:58:21.269Z,5.30
2023-03-04T15:03:30.011Z,8.78
2023-03-04T15:08:39.483Z,11.94
2023-03-04T15:13:50.170Z,9.90
2023-03-04T15:19:24.092Z,10.20
2023-03-04T15:24:28.242Z,8.32
2023-03-04T15:29:33.095Z,6.38
2023-03-04T15:34:37.206Z,5.18
2023-03-04T15:39:41.089Z,4.30
2023-03-04T15:44:45.471Z,3.60
2023-03-04T15:49:49.622Z,3.10
2023-03-04T15:54:53.642Z,2.80
2023-03-04T15:59:58.614Z,2.50
2023-03-04T16:05:03.817Z,2.16
2023-03-04T16:10:18.704Z,2.00
2023-03-04T16:15:30.289Z,1.70
2023-03-04T16:20:35.207Z,1.40
2023-03-04T16:25:39.440Z,1.10
2023-03-04T16:30:43.510Z,0.80
2023-03-04T16:35:48.108Z,0.50
2023-03-04T16:40:52.837Z,0.30
2023-03-04T16:45:57.200Z,0.10
2023-03-04T16:51:07.536Z,0.00
2023-03-04T16:56:17.233Z,-0.10
2023-03-04T17:01:24.256Z,-0.20
2023-03-04T17:06:28.632Z,-0.30
2023-03-04T17:11:33.196Z,-0.40
2023-03-04T17:16:37.362Z,-0.40
2023-03-04T17:21:41.891Z,-0.50
2023-03-04T17:26:45.814Z,-0.52
2023-03-04T17:31:49.886Z,-0.60
2023-03-04T17:36:55.657Z,-0.60
2023-03-04T17:42:00.186Z,-0.62
2023-03-04T17:47:06.162Z,-0.70
2023-03-04T17:52:12.655Z,-0.70
2023-03-04T18:02:21.096Z,-0.80
2023-03-04T18:07:25.880Z,-0.70
2023-03-04T18:12:30.190Z,-0.70
2023-03-04T18:17:35.084Z,-0.70
2023-03-04T18:26:07.653Z,-0.52
2023-03-04T18:31:11.925Z,-0.50
2023-03-04T18:36:16.884Z,-0.50
2023-03-04T18:41:21.000Z,-0.40
2023-03-04T18:46:47.924Z,-0.40
2023-03-04T18:51:52.647Z,-0.40
2023-03-04T18:57:03.014Z,-0.38
2023-03-04T19:02:22.592Z,-0.38
2023-03-04T19:07:27.435Z,-0.38
2023-03-04T19:12:32.385Z,-0.34
2023-03-04T19:17:37.863Z,-0.30
2023-03-04T19:22:42.463Z,-0.30
2023-03-04T19:27:46.853Z,-0.20
2023-03-04T19:32:50.958Z,-0.20
2023-03-04T19:37:55.293Z,-0.14
2023-03-04T19:42:59.531Z,-0.10
2023-03-04T19:48:03.665Z,-0.10
2023-03-04T19:53:08.514Z,-0.10
2023-03-04T19:58:13.264Z,-0.16
2023-03-04T20:03:18.121Z,-0.20
2023-03-04T20:08:23.279Z,-0.20
2023-03-04T20:13:27.506Z,-0.20
2023-03-04T20:18:31.363Z,-0.20
2023-03-04T20:23:36.889Z,-0.10
2023-03-04T20:28:40.933Z,-0.10
2023-03-04T20:33:49.228Z,-0.10
2023-03-04T20:39:02.581Z,-0.10
2023-03-04T20:44:07.857Z,-0.10
2023-03-04T20:49:22.400Z,-0.06
2023-03-04T20:54:26.705Z,0.00
2023-03-04T20:59:30.707Z,0.00
2023-03-04T21:04:34.802Z,0.06
2023-03-04T21:09:38.783Z,0.00
2023-03-04T21:14:42.853Z,0.02
2023-03-04T21:19:46.954Z,0.00
2023-03-04T21:24:51.150Z,0.00
2023-03-04T21:29:55.312Z,0.00
2023-03-04T21:34:59.552Z,0.00
2023-03-04T21:40:05.986Z,-0.02
2023-03-04T21:45:11.303Z,-0.10
2023-03-04T21:50:15.301Z,-0.10
2023-03-04T21:55:19.076Z,-0.20
2023-03-04T22:00:24.541Z,-0.28
2023-03-04T22:05:28.580Z,-0.30
2023-03-04T22:10:32.562Z,-0.30
2023-03-04T22:15:38.692Z,-0.40
2023-03-04T22:20:45.742Z,-0.40
2023-03-04T22:25:49.506Z,-0.50
2023-03-04T22:30:53.548Z,-0.60
2023-03-04T22:35:58.121Z,-0.60
2023-03-04T22:41:02.233Z,-0.70
2023-03-04T22:46:25.932Z,-0.76
2023-03-04T22:51:29.872Z,-0.80
2023-03-04T22:56:34.247Z,-0.90
2023-03-04T23:01:38.423Z,-0.96
2023-03-04T23:06:42.680Z,-1.00
2023-03-04T23:11:46.491Z,-1.10
2023-03-04T23:16:50.441Z,-1.20
2023-03-04T23:21:54.643Z,-1.30
2023-03-04T23:26:58.449Z,-1.40
2023-03-04T23:32:02.239Z,-1.40
2023-03-04T23:37:06.245Z,-1.50
2023-03-04T23:42:10.345Z,-1.50
2023-03-04T23:47:13.962Z,-1.60
2023-03-04T23:52:17.694Z,-1.60
2023-03-04T23:57:21.606Z,-1.60
